GXFCD EGKA-EGDY
Flight info
| Callsign | GXFCD |
|---|---|
| Flight time | 0h 36m |
| Altitude | 3000 |
| Route | EGKA/20 EGHJ EGDY/26 |
| Aircraft | C208/L-SDFGRZ/C |
Departure
| Time | 2026-05-07 14:50 |
|---|---|
| Airport | Brighton City Airport (EGKA) |
Arrival
| Time | 2026-05-07 15:26 |
|---|---|
| Airport | RNAS Yeovilton (EGDY) |
| Time | Latitude | Longitude | Altitude | Speed | Heading |
|---|---|---|---|---|---|
| 2026-05-07 14:35 | 50.83446 | -0.28985 | 13 ft | 0 kts | 253° |
| 2026-05-07 14:41 | 50.83440 | -0.29022 | 13 ft | 3 kts | 261° |
| 2026-05-07 14:42 | 50.83445 | -0.29058 | 13 ft | 3 kts | 298° |
| 2026-05-07 14:42 | 50.83448 | -0.29067 | 14 ft | 0 kts | 303° |
| 2026-05-07 14:42 | 50.83448 | -0.29066 | 14 ft | 0 kts | 303° |
| 2026-05-07 14:43 | 50.83449 | -0.29069 | 14 ft | 0 kts | 303° |
| 2026-05-07 14:43 | 50.83448 | -0.29066 | 14 ft | 1 kts | 308° |
| 2026-05-07 14:44 | 50.83441 | -0.29055 | 13 ft | 1 kts | 326° |
| 2026-05-07 14:44 | 50.83441 | -0.29056 | 13 ft | 1 kts | 326° |
| 2026-05-07 14:44 | 50.83451 | -0.29062 | 14 ft | 4 kts | 346° |
| 2026-05-07 14:44 | 50.83487 | -0.29032 | 13 ft | 7 kts | 68° |
| 2026-05-07 14:45 | 50.83489 | -0.28974 | 13 ft | 4 kts | 88° |
| 2026-05-07 14:45 | 50.83500 | -0.28905 | 13 ft | 9 kts | 75° |
| 2026-05-07 14:45 | 50.83531 | -0.28823 | 11 ft | 9 kts | 33° |
| 2026-05-07 14:45 | 50.83542 | -0.28814 | 10 ft | 0 kts | 22° |
| 2026-05-07 14:46 | 50.83579 | -0.28814 | 10 ft | 9 kts | 341° |
| 2026-05-07 14:46 | 50.83638 | -0.28885 | 12 ft | 12 kts | 304° |
| 2026-05-07 14:46 | 50.83695 | -0.29014 | 13 ft | 16 kts | 305° |
| 2026-05-07 14:46 | 50.83757 | -0.29154 | 16 ft | 16 kts | 305° |
| 2026-05-07 14:47 | 50.83819 | -0.29293 | 16 ft | 13 kts | 307° |
| 2026-05-07 14:47 | 50.83893 | -0.29332 | 15 ft | 13 kts | 2° |
| 2026-05-07 14:47 | 50.83949 | -0.29328 | 14 ft | 0 kts | 0° |
| 2026-05-07 14:48 | 50.83954 | -0.29329 | 13 ft | 4 kts | 351° |
| 2026-05-07 14:48 | 50.83982 | -0.29393 | 12 ft | 10 kts | 291° |
| 2026-05-07 14:49 | 50.83991 | -0.29442 | 11 ft | 3 kts | 266° |
| 2026-05-07 14:49 | 50.83971 | -0.29480 | 13 ft | 5 kts | 197° |
| 2026-05-07 14:49 | 50.83930 | -0.29493 | 15 ft | 12 kts | 201° |
| 2026-05-07 14:49 | 50.83908 | -0.29507 | 16 ft | 0 kts | 203° |
| 2026-05-07 14:50 | 50.83908 | -0.29508 | 16 ft | 2 kts | 202° |
| 2026-05-07 14:50 | 50.83572 | -0.29622 | 68 ft | 82 kts | 185° |
| 2026-05-07 14:50 | 50.82981 | -0.30008 | 395 ft | 104 kts | 201° |
| 2026-05-07 14:50 | 50.82273 | -0.30674 | 640 ft | 125 kts | 212° |
| 2026-05-07 14:51 | 50.81598 | -0.31443 | 1134 ft | 116 kts | 212° |
| 2026-05-07 14:51 | 50.80908 | -0.32168 | 1385 ft | 124 kts | 211° |
| 2026-05-07 14:51 | 50.80135 | -0.32941 | 1598 ft | 135 kts | 207° |
| 2026-05-07 14:51 | 50.79307 | -0.33678 | 1762 ft | 141 kts | 221° |
| 2026-05-07 14:52 | 50.78604 | -0.34787 | 1897 ft | 146 kts | 224° |
| 2026-05-07 14:52 | 50.77863 | -0.35964 | 1897 ft | 154 kts | 223° |
| 2026-05-07 14:52 | 50.77109 | -0.37179 | 1922 ft | 156 kts | 224° |
| 2026-05-07 14:52 | 50.76620 | -0.38735 | 1929 ft | 162 kts | 248° |
| 2026-05-07 14:53 | 50.76263 | -0.40446 | 1925 ft | 165 kts | 249° |
| 2026-05-07 14:53 | 50.75899 | -0.42177 | 1975 ft | 167 kts | 249° |
| 2026-05-07 14:53 | 50.75521 | -0.43918 | 2052 ft | 169 kts | 249° |
| 2026-05-07 14:53 | 50.75145 | -0.45676 | 2129 ft | 170 kts | 249° |
| 2026-05-07 14:54 | 50.74759 | -0.47442 | 2202 ft | 170 kts | 250° |
| 2026-05-07 14:54 | 50.74361 | -0.49197 | 2278 ft | 170 kts | 249° |
| 2026-05-07 14:54 | 50.73967 | -0.50955 | 2366 ft | 170 kts | 249° |
| 2026-05-07 14:54 | 50.73572 | -0.52730 | 2388 ft | 173 kts | 250° |
| 2026-05-07 14:55 | 50.73169 | -0.54512 | 2391 ft | 175 kts | 249° |
| 2026-05-07 14:55 | 50.72768 | -0.56329 | 2389 ft | 176 kts | 250° |
| 2026-05-07 14:55 | 50.72352 | -0.58150 | 2388 ft | 175 kts | 249° |
| 2026-05-07 14:55 | 50.71944 | -0.59960 | 2388 ft | 175 kts | 249° |
| 2026-05-07 14:56 | 50.71540 | -0.61763 | 2388 ft | 174 kts | 249° |
| 2026-05-07 14:56 | 50.71144 | -0.63569 | 2389 ft | 174 kts | 249° |
| 2026-05-07 14:56 | 50.70751 | -0.65377 | 2387 ft | 175 kts | 250° |
| 2026-05-07 14:56 | 50.70346 | -0.67185 | 2387 ft | 175 kts | 250° |
| 2026-05-07 14:57 | 50.69934 | -0.68995 | 2387 ft | 176 kts | 249° |
| 2026-05-07 14:57 | 50.69528 | -0.70811 | 2387 ft | 176 kts | 249° |
| 2026-05-07 14:57 | 50.69118 | -0.72628 | 2391 ft | 176 kts | 250° |
| 2026-05-07 14:57 | 50.68698 | -0.74451 | 2388 ft | 176 kts | 249° |
| 2026-05-07 14:58 | 50.68286 | -0.76234 | 2389 ft | 176 kts | 249° |
| 2026-05-07 14:58 | 50.67875 | -0.78049 | 2390 ft | 176 kts | 250° |
| 2026-05-07 14:58 | 50.67466 | -0.79870 | 2392 ft | 176 kts | 249° |
| 2026-05-07 14:58 | 50.67051 | -0.81693 | 2390 ft | 176 kts | 249° |
| 2026-05-07 14:59 | 50.66635 | -0.83508 | 2391 ft | 176 kts | 249° |
| 2026-05-07 14:59 | 50.66232 | -0.85322 | 2391 ft | 175 kts | 249° |
| 2026-05-07 14:59 | 50.65833 | -0.87130 | 2388 ft | 174 kts | 249° |
| 2026-05-07 14:59 | 50.65458 | -0.88921 | 2487 ft | 165 kts | 252° |
| 2026-05-07 15:00 | 50.65227 | -0.90655 | 2402 ft | 166 kts | 262° |
| 2026-05-07 15:00 | 50.65227 | -0.92539 | 2004 ft | 179 kts | 273° |
| 2026-05-07 15:00 | 50.65398 | -0.94448 | 1859 ft | 172 kts | 277° |
| 2026-05-07 15:00 | 50.65594 | -0.96258 | 1748 ft | 166 kts | 279° |
| 2026-05-07 15:01 | 50.65842 | -0.98042 | 1559 ft | 162 kts | 280° |
| 2026-05-07 15:01 | 50.66091 | -0.99727 | 1327 ft | 159 kts | 281° |
| 2026-05-07 15:01 | 50.66294 | -1.01455 | 1062 ft | 156 kts | 275° |
| 2026-05-07 15:01 | 50.66485 | -1.03118 | 886 ft | 153 kts | 280° |
| 2026-05-07 15:02 | 50.66673 | -1.04750 | 759 ft | 146 kts | 273° |
| 2026-05-07 15:02 | 50.66787 | -1.06294 | 644 ft | 141 kts | 274° |
| 2026-05-07 15:02 | 50.66962 | -1.07818 | 481 ft | 138 kts | 280° |
| 2026-05-07 15:02 | 50.67247 | -1.09171 | 327 ft | 124 kts | 292° |
| 2026-05-07 15:03 | 50.67605 | -1.10368 | 48 ft | 113 kts | 295° |
| 2026-05-07 15:03 | 50.67944 | -1.11379 | 129 ft | 114 kts | 300° |
| 2026-05-07 15:03 | 50.68350 | -1.12629 | 397 ft | 134 kts | 289° |
| 2026-05-07 15:03 | 50.68655 | -1.14011 | 778 ft | 137 kts | 284° |
| 2026-05-07 15:04 | 50.68911 | -1.15488 | 1162 ft | 139 kts | 277° |
| 2026-05-07 15:04 | 50.69059 | -1.16990 | 1522 ft | 143 kts | 272° |
| 2026-05-07 15:04 | 50.69124 | -1.18564 | 1825 ft | 143 kts | 268° |
| 2026-05-07 15:04 | 50.69162 | -1.20170 | 2118 ft | 147 kts | 269° |
| 2026-05-07 15:05 | 50.69186 | -1.21831 | 2253 ft | 157 kts | 268° |
| 2026-05-07 15:05 | 50.69212 | -1.23586 | 2364 ft | 163 kts | 268° |
| 2026-05-07 15:05 | 50.69242 | -1.25455 | 2281 ft | 175 kts | 270° |
| 2026-05-07 15:05 | 50.69529 | -1.27356 | 2215 ft | 182 kts | 287° |
| 2026-05-07 15:06 | 50.69893 | -1.29160 | 2888 ft | 153 kts | 284° |
| 2026-05-07 15:06 | 50.70137 | -1.30742 | 3198 ft | 145 kts | 278° |
| 2026-05-07 15:06 | 50.70393 | -1.32346 | 3338 ft | 163 kts | 289° |
| 2026-05-07 15:06 | 50.70821 | -1.34063 | 3263 ft | 178 kts | 291° |
| 2026-05-07 15:07 | 50.71288 | -1.35873 | 3232 ft | 176 kts | 291° |
| 2026-05-07 15:07 | 50.71761 | -1.37647 | 3117 ft | 176 kts | 291° |
| 2026-05-07 15:07 | 50.72162 | -1.39474 | 2964 ft | 176 kts | 285° |
| 2026-05-07 15:07 | 50.72539 | -1.41307 | 2815 ft | 174 kts | 287° |
| 2026-05-07 15:08 | 50.72945 | -1.43089 | 2660 ft | 171 kts | 287° |
| 2026-05-07 15:08 | 50.73358 | -1.44841 | 2513 ft | 170 kts | 288° |
| 2026-05-07 15:08 | 50.73775 | -1.46548 | 2502 ft | 164 kts | 287° |
| 2026-05-07 15:08 | 50.74187 | -1.48203 | 2501 ft | 160 kts | 288° |
| 2026-05-07 15:09 | 50.74591 | -1.49831 | 2495 ft | 158 kts | 287° |
| 2026-05-07 15:09 | 50.74986 | -1.51451 | 2497 ft | 158 kts | 288° |
| 2026-05-07 15:09 | 50.75383 | -1.53063 | 2501 ft | 160 kts | 287° |
| 2026-05-07 15:09 | 50.75801 | -1.54749 | 2498 ft | 168 kts | 287° |
| 2026-05-07 15:10 | 50.76230 | -1.56486 | 2499 ft | 171 kts | 287° |
| 2026-05-07 15:10 | 50.76661 | -1.58249 | 2510 ft | 173 kts | 287° |
| 2026-05-07 15:10 | 50.77094 | -1.60012 | 2493 ft | 174 kts | 287° |
| 2026-05-07 15:10 | 50.77530 | -1.61796 | 2493 ft | 174 kts | 287° |
| 2026-05-07 15:11 | 50.77968 | -1.63577 | 2500 ft | 174 kts | 288° |
| 2026-05-07 15:11 | 50.78383 | -1.65380 | 2496 ft | 174 kts | 287° |
| 2026-05-07 15:11 | 50.78795 | -1.67180 | 2499 ft | 175 kts | 287° |
| 2026-05-07 15:11 | 50.79208 | -1.68987 | 2497 ft | 174 kts | 287° |
| 2026-05-07 15:12 | 50.79623 | -1.70784 | 2499 ft | 173 kts | 287° |
| 2026-05-07 15:12 | 50.80036 | -1.72572 | 2494 ft | 173 kts | 289° |
| 2026-05-07 15:12 | 50.80454 | -1.74344 | 2495 ft | 171 kts | 287° |
| 2026-05-07 15:12 | 50.80855 | -1.76113 | 2495 ft | 171 kts | 287° |
| 2026-05-07 15:13 | 50.81251 | -1.77894 | 2499 ft | 171 kts | 287° |
| 2026-05-07 15:13 | 50.81635 | -1.79636 | 2497 ft | 170 kts | 286° |
| 2026-05-07 15:13 | 50.82057 | -1.81393 | 2498 ft | 172 kts | 287° |
| 2026-05-07 15:13 | 50.82482 | -1.83161 | 2492 ft | 171 kts | 288° |
| 2026-05-07 15:14 | 50.82879 | -1.84920 | 2491 ft | 169 kts | 287° |
| 2026-05-07 15:14 | 50.83322 | -1.86669 | 2496 ft | 173 kts | 291° |
| 2026-05-07 15:14 | 50.83842 | -1.88417 | 2494 ft | 178 kts | 293° |
| 2026-05-07 15:14 | 50.84376 | -1.90174 | 2491 ft | 176 kts | 292° |
| 2026-05-07 15:15 | 50.84903 | -1.91919 | 2489 ft | 176 kts | 292° |
| 2026-05-07 15:15 | 50.85431 | -1.93636 | 2489 ft | 176 kts | 293° |
| 2026-05-07 15:15 | 50.85953 | -1.95383 | 2491 ft | 176 kts | 292° |
| 2026-05-07 15:15 | 50.86470 | -1.97135 | 2490 ft | 175 kts | 292° |
| 2026-05-07 15:16 | 50.86989 | -1.98876 | 2496 ft | 175 kts | 292° |
| 2026-05-07 15:16 | 50.87512 | -2.00621 | 2491 ft | 175 kts | 292° |
| 2026-05-07 15:16 | 50.88030 | -2.02373 | 2497 ft | 176 kts | 292° |
| 2026-05-07 15:16 | 50.88553 | -2.04138 | 2494 ft | 177 kts | 292° |
| 2026-05-07 15:17 | 50.89079 | -2.05898 | 2499 ft | 177 kts | 292° |
| 2026-05-07 15:17 | 50.89604 | -2.07660 | 2501 ft | 176 kts | 291° |
| 2026-05-07 15:17 | 50.90137 | -2.09406 | 2500 ft | 177 kts | 292° |
| 2026-05-07 15:17 | 50.90673 | -2.11166 | 2495 ft | 177 kts | 291° |
| 2026-05-07 15:18 | 50.91221 | -2.12935 | 2484 ft | 180 kts | 291° |
| 2026-05-07 15:18 | 50.91783 | -2.14704 | 2480 ft | 180 kts | 293° |
| 2026-05-07 15:18 | 50.92323 | -2.16474 | 2485 ft | 177 kts | 291° |
| 2026-05-07 15:18 | 50.92862 | -2.18232 | 2495 ft | 178 kts | 292° |
| 2026-05-07 15:19 | 50.93386 | -2.19984 | 2490 ft | 178 kts | 292° |
| 2026-05-07 15:19 | 50.93919 | -2.21758 | 2441 ft | 178 kts | 293° |
| 2026-05-07 15:19 | 50.94440 | -2.23489 | 2362 ft | 169 kts | 292° |
| 2026-05-07 15:19 | 50.94944 | -2.25128 | 2277 ft | 161 kts | 292° |
| 2026-05-07 15:20 | 50.95444 | -2.26700 | 2200 ft | 160 kts | 292° |
| 2026-05-07 15:20 | 50.95941 | -2.28284 | 2115 ft | 162 kts | 293° |
| 2026-05-07 15:20 | 50.96442 | -2.29878 | 2043 ft | 161 kts | 292° |
| 2026-05-07 15:20 | 50.96934 | -2.31477 | 1962 ft | 160 kts | 292° |
| 2026-05-07 15:21 | 50.97412 | -2.33034 | 1898 ft | 158 kts | 293° |
| 2026-05-07 15:21 | 50.97903 | -2.34627 | 1729 ft | 161 kts | 292° |
| 2026-05-07 15:21 | 50.98404 | -2.36237 | 1474 ft | 169 kts | 291° |
| 2026-05-07 15:21 | 50.98809 | -2.37482 | 1237 ft | 155 kts | 292° |
| 2026-05-07 15:22 | 50.99296 | -2.38977 | 961 ft | 151 kts | 293° |
| 2026-05-07 15:22 | 50.99750 | -2.40415 | 880 ft | 138 kts | 292° |
| 2026-05-07 15:22 | 51.00182 | -2.41693 | 871 ft | 128 kts | 293° |
| 2026-05-07 15:22 | 51.00622 | -2.42932 | 886 ft | 131 kts | 291° |
| 2026-05-07 15:23 | 51.01067 | -2.44208 | 882 ft | 131 kts | 294° |
| 2026-05-07 15:23 | 51.01496 | -2.45489 | 879 ft | 131 kts | 287° |
| 2026-05-07 15:23 | 51.01530 | -2.46850 | 879 ft | 125 kts | 269° |
| 2026-05-07 15:23 | 51.01575 | -2.48215 | 962 ft | 124 kts | 266° |
| 2026-05-07 15:24 | 51.01603 | -2.49598 | 1027 ft | 125 kts | 264° |
| 2026-05-07 15:24 | 51.01611 | -2.50519 | 1011 ft | 126 kts | 266° |
| 2026-05-07 15:24 | 51.01603 | -2.51920 | 989 ft | 128 kts | 264° |
| 2026-05-07 15:24 | 51.01587 | -2.53308 | 1057 ft | 125 kts | 264° |
| 2026-05-07 15:25 | 51.01552 | -2.54717 | 965 ft | 129 kts | 262° |
| 2026-05-07 15:25 | 51.01470 | -2.56171 | 858 ft | 136 kts | 259° |
| 2026-05-07 15:25 | 51.01356 | -2.57663 | 751 ft | 138 kts | 259° |
| 2026-05-07 15:25 | 51.01242 | -2.59130 | 657 ft | 128 kts | 260° |
| 2026-05-07 15:26 | 51.01144 | -2.60527 | 429 ft | 126 kts | 257° |
| 2026-05-07 15:26 | 51.01034 | -2.61882 | 249 ft | 117 kts | 256° |
| 2026-05-07 15:26 | 51.00948 | -2.63051 | 93 ft | 92 kts | 254° |
| 2026-05-07 15:26 | 51.00902 | -2.63551 | 63 ft | 0 kts | 253° |
| 2026-05-07 15:27 | 51.00891 | -2.63668 | 65 ft | 13 kts | 264° |
| 2026-05-07 15:27 | 51.00881 | -2.63863 | 65 ft | 21 kts | 264° |
| 2026-05-07 15:27 | 51.00865 | -2.64099 | 66 ft | 21 kts | 263° |
| 2026-05-07 15:27 | 51.00850 | -2.64315 | 68 ft | 15 kts | 279° |
| 2026-05-07 15:28 | 51.00901 | -2.64354 | 63 ft | 5 kts | 29° |
| 2026-05-07 15:28 | 51.00930 | -2.64316 | 67 ft | 0 kts | 19° |
| 2026-05-07 15:28 | 51.00931 | -2.64316 | 67 ft | 1 kts | 18° |
| 2026-05-07 15:28 | 51.00954 | -2.64318 | 67 ft | 5 kts | 331° |
| 2026-05-07 15:29 | 51.00967 | -2.64351 | 64 ft | 3 kts | 275° |
| 2026-05-07 15:29 | 51.00962 | -2.64411 | 63 ft | 8 kts | 262° |
| 2026-05-07 15:29 | 51.00961 | -2.64470 | 67 ft | 1 kts | 290° |
| 2026-05-07 15:29 | 51.00976 | -2.64498 | 60 ft | 4 kts | 333° |
| 2026-05-07 15:30 | 51.00990 | -2.64503 | 67 ft | 0 kts | 357° |